createdAt,value
2023-05-19T00:01:21.050Z,95159.94
2023-05-19T00:03:59.134Z,95149.94
2023-05-19T00:06:27.753Z,95153.81
2023-05-19T00:09:04.179Z,95149.16
2023-05-19T00:11:31.899Z,95141.31
2023-05-19T00:14:00.394Z,95142.44
2023-05-19T00:16:29.353Z,95138.53
2023-05-19T00:18:58.243Z,95146.59
2023-05-19T00:21:25.049Z,95142.13
2023-05-19T00:23:51.854Z,95135.63
2023-05-19T00:26:18.936Z,95133.81
2023-05-19T00:28:55.113Z,95127.03
2023-05-19T00:31:21.947Z,95134.50
2023-05-19T00:33:48.822Z,95129.22
2023-05-19T00:36:15.660Z,95126.44
2023-05-19T00:38:42.444Z,95120.34
2023-05-19T00:41:09.548Z,95132.69
2023-05-19T00:43:36.433Z,95119.94
2023-05-19T00:46:03.752Z,95125.09
2023-05-19T00:48:30.717Z,95118.41
2023-05-19T00:51:04.180Z,95133.66
2023-05-19T00:53:33.537Z,95126.09
2023-05-19T00:56:01.611Z,95128.34
2023-05-19T00:58:30.814Z,95127.78
2023-05-19T01:01:04.219Z,95118.41
2023-05-19T01:03:35.165Z,95126.81
2023-05-19T01:06:05.318Z,95129.63
2023-05-19T01:08:33.625Z,95119.00
2023-05-19T01:11:00.715Z,95115.13
2023-05-19T01:13:28.591Z,95112.94
2023-05-19T01:16:02.535Z,95125.53
2023-05-19T01:18:47.562Z,95118.47
2023-05-19T01:21:23.015Z,95116.88
2023-05-19T01:24:18.377Z,95123.19
2023-05-19T01:27:00.715Z,95118.22
2023-05-19T01:29:29.479Z,95114.94
2023-05-19T01:32:00.353Z,95123.88
2023-05-19T01:34:29.529Z,95124.88
2023-05-19T01:36:58.290Z,95117.66
2023-05-19T01:39:26.160Z,95119.13
2023-05-19T01:41:55.039Z,95127.63
2023-05-19T01:44:23.816Z,95120.34
2023-05-19T01:46:51.175Z,95121.31
2023-05-19T01:49:18.018Z,95123.66
2023-05-19T01:51:44.954Z,95117.09
2023-05-19T01:54:11.753Z,95119.03
2023-05-19T01:56:49.483Z,95124.31
2023-05-19T01:59:27.376Z,95124.34
2023-05-19T02:02:00.604Z,95120.72
2023-05-19T02:04:41.709Z,95116.97
2023-05-19T02:07:15.707Z,95113.75
2023-05-19T02:10:03.982Z,95106.72
2023-05-19T02:12:39.154Z,95105.38
2023-05-19T02:15:11.222Z,95105.59
2023-05-19T02:17:47.758Z,95114.38
2023-05-19T02:20:18.362Z,95104.50
2023-05-19T02:22:45.599Z,95097.13
2023-05-19T02:25:13.344Z,95093.84
2023-05-19T02:27:41.753Z,95099.31
2023-05-19T02:30:09.499Z,95102.00
2023-05-19T02:32:37.104Z,95106.22
2023-05-19T02:35:04.896Z,95100.03
2023-05-19T02:37:32.623Z,95105.13
2023-05-19T02:39:59.531Z,95097.97
2023-05-19T02:42:26.394Z,95096.34
2023-05-19T02:44:54.672Z,95093.53
2023-05-19T02:47:21.802Z,95093.22
2023-05-19T02:49:48.601Z,95084.78
2023-05-19T02:52:15.646Z,95090.28
2023-05-19T02:54:42.654Z,95092.91
2023-05-19T02:57:09.681Z,95093.28
2023-05-19T02:59:36.722Z,95090.50
2023-05-19T03:02:03.849Z,95090.13
2023-05-19T03:04:30.693Z,95096.66
2023-05-19T03:06:57.838Z,95083.59
2023-05-19T03:09:24.787Z,95084.16
2023-05-19T03:11:51.633Z,95086.59
2023-05-19T03:14:18.842Z,95084.56
2023-05-19T03:16:45.877Z,95087.94
2023-05-19T03:19:12.884Z,95086.47
2023-05-19T03:21:39.949Z,95089.00
2023-05-19T03:24:07.254Z,95084.59
2023-05-19T03:26:34.467Z,95099.94
2023-05-19T03:29:01.531Z,95096.16
2023-05-19T03:31:30.718Z,95090.41
2023-05-19T03:33:59.127Z,95090.75
2023-05-19T03:36:32.091Z,95089.22
2023-05-19T03:39:00.441Z,95081.81
2023-05-19T03:41:27.535Z,95085.25
2023-05-19T03:43:54.351Z,95084.41
2023-05-19T03:46:21.337Z,95082.50
2023-05-19T03:48:54.459Z,95087.44
2023-05-19T03:51:40.231Z,95078.19
2023-05-19T03:54:21.104Z,95076.38
2023-05-19T03:56:48.488Z,95076.09
2023-05-19T03:59:16.275Z,95076.91
2023-05-19T04:01:43.041Z,95076.84
2023-05-19T04:04:10.211Z,95083.06
2023-05-19T04:06:37.851Z,95080.81
2023-05-19T04:09:14.597Z,95080.44
2023-05-19T04:11:42.807Z,95080.94
2023-05-19T04:14:09.810Z,95080.41
2023-05-19T04:16:37.276Z,95086.72
2023-05-19T04:19:04.301Z,95082.19
2023-05-19T04:21:31.116Z,95090.31
2023-05-19T04:24:00.058Z,95087.50
2023-05-19T04:26:30.947Z,95091.00
2023-05-19T04:28:58.018Z,95086.75
2023-05-19T04:31:24.860Z,95097.25
2023-05-19T04:33:53.572Z,95094.84
2023-05-19T04:36:21.858Z,95090.22
2023-05-19T04:38:54.923Z,95089.94
2023-05-19T04:41:25.749Z,95097.31
2023-05-19T04:43:52.566Z,95089.47
2023-05-19T04:46:24.431Z,95085.72
2023-05-19T04:48:53.400Z,95082.28
2023-05-19T04:51:20.517Z,95076.31
2023-05-19T04:53:47.352Z,95067.28
2023-05-19T04:56:15.575Z,95074.25
2023-05-19T04:58:44.887Z,95076.69
2023-05-19T05:01:13.965Z,95079.69
2023-05-19T05:03:41.104Z,95079.72
2023-05-19T05:06:08.912Z,95081.41
2023-05-19T05:08:40.071Z,95066.91
2023-05-19T05:11:07.407Z,95067.31
2023-05-19T05:13:34.917Z,95071.47
2023-05-19T05:16:01.979Z,95064.91
2023-05-19T05:18:29.004Z,95068.91
2023-05-19T05:20:56.112Z,95063.31
2023-05-19T05:23:24.717Z,95060.69
2023-05-19T05:25:51.907Z,95052.69
2023-05-19T05:28:19.157Z,95053.03
2023-05-19T05:30:47.293Z,95062.00
2023-05-19T05:33:15.449Z,95049.56
2023-05-19T05:35:42.875Z,95055.47
2023-05-19T05:38:12.232Z,95048.22
2023-05-19T05:40:39.949Z,95056.00
2023-05-19T05:43:07.892Z,95051.47
2023-05-19T05:45:41.136Z,95054.53
2023-05-19T05:48:09.534Z,95070.19
2023-05-19T05:50:37.144Z,95074.94
2023-05-19T05:53:07.308Z,95069.41
2023-05-19T05:55:36.975Z,95066.47
2023-05-19T05:58:05.695Z,95068.75
2023-05-19T06:00:33.574Z,95064.28
2023-05-19T06:03:00.689Z,95070.75
2023-05-19T06:05:27.827Z,95060.78
2023-05-19T06:07:55.009Z,95064.91
2023-05-19T06:10:25.394Z,95082.13
2023-05-19T06:12:54.140Z,95072.47
2023-05-19T06:15:23.614Z,95073.19
2023-05-19T06:18:03.638Z,95071.25
2023-05-19T06:20:30.639Z,95071.16
2023-05-19T06:22:58.160Z,95076.09
2023-05-19T06:25:27.059Z,95056.72
2023-05-19T06:27:54.961Z,95072.66
2023-05-19T06:30:22.992Z,95070.53
2023-05-19T06:33:11.970Z,95071.00
2023-05-19T06:35:38.774Z,95065.94
2023-05-19T06:38:05.848Z,95074.25
2023-05-19T06:40:32.949Z,95068.59
2023-05-19T06:42:59.923Z,95082.50
2023-05-19T06:45:52.909Z,95073.34
2023-05-19T06:48:19.885Z,95069.47
2023-05-19T06:50:47.538Z,95066.47
2023-05-19T06:53:14.456Z,95071.09
2023-05-19T06:55:50.685Z,95066.06
2023-05-19T06:58:27.329Z,95069.66
2023-05-19T07:00:54.609Z,95071.38
2023-05-19T07:03:22.504Z,95079.00
2023-05-19T07:05:49.747Z,95071.09
2023-05-19T07:08:16.545Z,95063.91
2023-05-19T07:10:43.902Z,95078.72
2023-05-19T07:13:13.744Z,95079.06
2023-05-19T07:15:41.226Z,95081.88
2023-05-19T07:18:08.084Z,95071.44
2023-05-19T07:20:36.289Z,95081.78
2023-05-19T07:23:05.334Z,95067.31
2023-05-19T07:25:33.316Z,95079.69
2023-05-19T07:28:00.335Z,95072.97
2023-05-19T07:30:28.955Z,95080.44
2023-05-19T07:32:56.509Z,95086.34
2023-05-19T07:35:23.421Z,95088.09
2023-05-19T07:37:51.649Z,95082.56
2023-05-19T07:40:18.696Z,95058.13
2023-05-19T07:42:45.555Z,95075.88
2023-05-19T07:45:12.732Z,95082.09
2023-05-19T07:47:39.621Z,95074.13
2023-05-19T07:50:07.013Z,95075.38
2023-05-19T07:52:33.999Z,95084.34
2023-05-19T07:55:02.008Z,95070.22
2023-05-19T07:57:29.399Z,95066.50
2023-05-19T07:59:56.615Z,95065.84
2023-05-19T08:02:23.440Z,95062.56
2023-05-19T08:04:50.551Z,95054.47
2023-05-19T08:07:17.330Z,95051.16
2023-05-19T08:09:44.423Z,95062.16
2023-05-19T08:12:11.397Z,95057.94
2023-05-19T08:14:38.248Z,95060.94
2023-05-19T08:17:05.088Z,95076.69
2023-05-19T08:19:32.010Z,95083.47
2023-05-19T08:22:01.360Z,95070.63
2023-05-19T08:24:32.857Z,95077.50
2023-05-19T08:26:59.804Z,95064.44
2023-05-19T08:29:26.604Z,95064.22
2023-05-19T08:31:53.788Z,95063.59
2023-05-19T08:34:20.938Z,95080.31
2023-05-19T08:36:48.000Z,95070.63
2023-05-19T08:39:16.384Z,95053.13
2023-05-19T08:41:43.396Z,95077.44
2023-05-19T08:44:10.259Z,95066.44
2023-05-19T08:46:37.436Z,95065.78
2023-05-19T08:49:14.883Z,95069.03
2023-05-19T08:52:09.977Z,95075.13
2023-05-19T08:55:09.755Z,95061.38
2023-05-19T08:57:39.451Z,95059.47
2023-05-19T09:00:12.261Z,95068.34
2023-05-19T09:02:50.408Z,95056.88
2023-05-19T09:05:27.182Z,95049.41
2023-05-19T09:07:54.031Z,95054.09
2023-05-19T09:10:20.970Z,95067.75
2023-05-19T09:12:48.822Z,95053.56
2023-05-19T09:15:19.409Z,95061.16
2023-05-19T09:17:48.222Z,95061.81
2023-05-19T09:20:17.417Z,95039.63
2023-05-19T09:22:48.334Z,95048.47
2023-05-19T09:25:24.864Z,95033.28
2023-05-19T09:27:54.130Z,95031.16
2023-05-19T09:30:21.547Z,95055.50
2023-05-19T09:32:48.414Z,95061.25
2023-05-19T09:35:20.216Z,95041.09
2023-05-19T09:37:47.003Z,95048.78
2023-05-19T09:40:15.852Z,95033.47
2023-05-19T09:42:44.445Z,95041.75
2023-05-19T09:45:11.967Z,95045.97
2023-05-19T09:47:41.268Z,95033.06
2023-05-19T09:50:10.492Z,95041.09
2023-05-19T09:52:39.093Z,95051.63
2023-05-19T09:55:09.255Z,95037.28
2023-05-19T09:57:37.392Z,95043.91
2023-05-19T10:00:14.561Z,95028.53
2023-05-19T10:02:44.180Z,95026.03
2023-05-19T10:05:23.135Z,95049.00
2023-05-19T10:07:51.686Z,95035.97
2023-05-19T10:10:21.975Z,95026.38
2023-05-19T10:12:49.996Z,95031.53
2023-05-19T10:15:20.607Z,95022.75
2023-05-19T10:17:50.648Z,95045.19
2023-05-19T10:22:46.322Z,95032.22
2023-05-19T10:25:18.637Z,95030.47
2023-05-19T10:27:57.707Z,95030.31
2023-05-19T10:30:31.360Z,95026.28
2023-05-19T10:33:01.896Z,95029.13
2023-05-19T10:36:14.668Z,95031.69
2023-05-19T10:38:57.114Z,95027.88
2023-05-19T10:41:38.750Z,95014.44
2023-05-19T10:44:31.728Z,95008.56
2023-05-19T10:46:58.753Z,95016.00
2023-05-19T10:49:25.823Z,95026.13
2023-05-19T10:51:56.658Z,95024.34
2023-05-19T10:54:40.889Z,95022.78
2023-05-19T10:57:09.934Z,95022.88
2023-05-19T10:59:39.812Z,95027.38
2023-05-19T11:02:08.860Z,95019.72
2023-05-19T11:04:52.571Z,95013.31
2023-05-19T11:07:22.390Z,95018.84
2023-05-19T11:09:51.882Z,95018.56
2023-05-19T11:12:25.541Z,95023.97
2023-05-19T11:14:54.197Z,94991.13
2023-05-19T11:17:24.078Z,94997.13
2023-05-19T11:19:59.855Z,94976.97
2023-05-19T11:22:27.871Z,95012.59
2023-05-19T11:24:55.744Z,95006.28
2023-05-19T11:27:34.226Z,95016.59
2023-05-19T11:30:15.186Z,94999.75
2023-05-19T11:32:42.983Z,94976.50
2023-05-19T11:35:10.482Z,94999.22
2023-05-19T11:37:38.081Z,95009.00
2023-05-19T11:40:07.708Z,95015.06
2023-05-19T11:42:35.466Z,95017.56
2023-05-19T11:45:05.322Z,95019.47
2023-05-19T11:47:47.044Z,94991.41
2023-05-19T11:50:22.529Z,95019.69
2023-05-19T11:52:51.134Z,95015.69
2023-05-19T11:55:19.199Z,95015.72
2023-05-19T11:58:12.388Z,95006.53
2023-05-19T12:00:40.813Z,95018.25
2023-05-19T12:03:08.681Z,95018.59
2023-05-19T12:05:48.640Z,95009.91
2023-05-19T12:08:18.554Z,95010.56
2023-05-19T12:10:51.848Z,95019.97
2023-05-19T12:13:19.398Z,95008.97
2023-05-19T12:15:47.002Z,95017.47
2023-05-19T12:18:14.027Z,95011.16
2023-05-19T12:20:41.266Z,95016.59
2023-05-19T12:23:08.172Z,95007.97
2023-05-19T12:25:35.398Z,95015.31
2023-05-19T12:28:05.843Z,95014.97
2023-05-19T12:30:33.980Z,95007.41
2023-05-19T12:33:03.100Z,95011.41
2023-05-19T12:35:34.676Z,95008.75
2023-05-19T12:38:06.200Z,95013.31
2023-05-19T12:40:37.482Z,94997.06
2023-05-19T12:43:05.840Z,94995.16
2023-05-19T12:45:37.260Z,94999.50
2023-05-19T12:48:06.747Z,94990.22
2023-05-19T12:50:34.717Z,94990.44
2023-05-19T12:53:02.318Z,94979.28
2023-05-19T12:55:30.207Z,94998.47
2023-05-19T12:57:58.308Z,95014.56
2023-05-19T13:00:31.399Z,95004.78
2023-05-19T13:03:05.361Z,94983.84
2023-05-19T13:05:34.549Z,94976.81
2023-05-19T13:08:05.350Z,94993.78
2023-05-19T13:10:34.076Z,94983.50
2023-05-19T13:13:01.381Z,94984.97
2023-05-19T13:15:32.344Z,94987.97
2023-05-19T13:18:01.166Z,94991.66
2023-05-19T13:20:28.783Z,94989.50
2023-05-19T13:22:57.164Z,94985.03
2023-05-19T13:25:24.089Z,94987.16
2023-05-19T13:27:51.124Z,94978.16
2023-05-19T13:30:19.067Z,94984.97
2023-05-19T13:32:46.608Z,94980.84
2023-05-19T13:35:15.006Z,94986.53
2023-05-19T13:37:45.621Z,94981.47
2023-05-19T13:40:13.718Z,94971.69
2023-05-19T13:42:41.730Z,94975.59
2023-05-19T13:45:09.404Z,94975.47
2023-05-19T13:47:36.184Z,94974.22
2023-05-19T13:50:04.711Z,94971.06
2023-05-19T13:52:31.907Z,94980.06
2023-05-19T13:54:58.658Z,94973.91
2023-05-19T13:57:27.006Z,94966.00
2023-05-19T14:00:02.803Z,94968.97
2023-05-19T14:02:40.039Z,94974.13
2023-05-19T14:05:08.184Z,94976.09
2023-05-19T14:07:35.617Z,94979.75
2023-05-19T14:10:04.095Z,94969.19
2023-05-19T14:12:43.130Z,94979.25
2023-05-19T14:15:14.645Z,94976.41
2023-05-19T14:17:42.378Z,94983.69
2023-05-19T14:20:09.890Z,94943.13
2023-05-19T14:22:36.760Z,94964.78
2023-05-19T14:25:03.878Z,94949.56
2023-05-19T14:27:30.772Z,94943.91
2023-05-19T14:29:57.780Z,94967.03
2023-05-19T14:32:24.685Z,94952.28
2023-05-19T14:34:53.083Z,94968.25
2023-05-19T14:37:20.635Z,94960.97
2023-05-19T14:39:47.411Z,94965.47
2023-05-19T14:42:14.388Z,94978.81
2023-05-19T14:44:41.319Z,94960.28
2023-05-19T14:47:08.487Z,94963.94
2023-05-19T14:49:35.494Z,94985.66
2023-05-19T14:52:02.509Z,94951.94
2023-05-19T14:54:29.283Z,94973.69
2023-05-19T14:56:56.453Z,94963.44
2023-05-19T14:59:23.307Z,94955.56
2023-05-19T15:01:50.184Z,94983.16
2023-05-19T15:04:17.905Z,94949.75
2023-05-19T15:06:46.408Z,94962.97
2023-05-19T15:09:15.184Z,94956.53
2023-05-19T15:11:42.006Z,94960.59
2023-05-19T15:14:08.819Z,94939.56
2023-05-19T15:16:35.746Z,94957.09
2023-05-19T15:19:02.955Z,94966.47
2023-05-19T15:21:29.850Z,94946.53
2023-05-19T15:23:56.718Z,94928.13
2023-05-19T15:26:23.533Z,94947.13
2023-05-19T15:28:52.168Z,94961.56
2023-05-19T15:31:19.561Z,94945.00
2023-05-19T15:33:46.327Z,94960.56
2023-05-19T15:36:16.440Z,94960.44
2023-05-19T15:38:43.381Z,94946.22
2023-05-19T15:41:10.606Z,94955.63
2023-05-19T15:43:37.735Z,94934.94
2023-05-19T15:46:05.243Z,94923.22
2023-05-19T15:48:33.243Z,94942.69
2023-05-19T15:51:00.230Z,94938.25
2023-05-19T15:53:27.129Z,94943.75
2023-05-19T15:55:53.945Z,94899.56
2023-05-19T15:58:20.712Z,94924.94
2023-05-19T16:00:47.499Z,94938.59
2023-05-19T16:03:15.027Z,94918.94
2023-05-19T16:05:42.140Z,94926.75
2023-05-19T16:08:09.063Z,94936.59
2023-05-19T16:10:36.112Z,94912.81
2023-05-19T16:13:03.292Z,94913.03
2023-05-19T16:15:30.111Z,94907.03
2023-05-19T16:17:57.350Z,94876.09
2023-05-19T16:20:28.271Z,94892.69
2023-05-19T16:22:55.541Z,94910.63
2023-05-19T16:25:22.570Z,94898.56
2023-05-19T16:27:50.360Z,94894.09
2023-05-19T16:30:17.089Z,94908.50
2023-05-19T16:32:43.901Z,94892.22
2023-05-19T16:35:11.042Z,94896.44
2023-05-19T16:37:37.960Z,94872.69
2023-05-19T16:40:05.662Z,94881.56
2023-05-19T16:42:32.621Z,94888.41
2023-05-19T16:44:59.443Z,94889.22
2023-05-19T16:47:26.284Z,94873.75
2023-05-19T16:49:53.106Z,94877.34
2023-05-19T16:52:20.228Z,94881.19
2023-05-19T16:54:47.026Z,94879.38
2023-05-19T16:57:17.030Z,94871.69
2023-05-19T16:59:44.073Z,94866.78
2023-05-19T17:02:10.867Z,94858.66
2023-05-19T17:04:37.681Z,94857.06
2023-05-19T17:07:05.129Z,94862.25
2023-05-19T17:09:32.004Z,94872.91
2023-05-19T17:11:59.078Z,94853.59
2023-05-19T17:14:25.861Z,94858.72
2023-05-19T17:16:53.031Z,94863.66
2023-05-19T17:19:20.371Z,94868.84
2023-05-19T17:21:47.215Z,94875.41
2023-05-19T17:24:14.352Z,94858.97
2023-05-19T17:26:41.193Z,94869.28
2023-05-19T17:29:07.998Z,94859.72
2023-05-19T17:31:35.350Z,94854.31
2023-05-19T17:34:02.122Z,94848.56
2023-05-19T17:36:29.246Z,94868.81
2023-05-19T17:38:56.139Z,94858.88
2023-05-19T17:41:23.194Z,94857.38
2023-05-19T17:43:50.744Z,94852.53
2023-05-19T17:46:17.636Z,94853.94
2023-05-19T17:48:44.853Z,94852.84
2023-05-19T17:51:12.364Z,94848.97
2023-05-19T17:53:39.601Z,94855.81
2023-05-19T17:56:08.905Z,94852.44
2023-05-19T17:58:36.394Z,94847.03
2023-05-19T18:01:03.387Z,94848.97
2023-05-19T18:03:31.428Z,94843.84
2023-05-19T18:05:59.452Z,94846.03
2023-05-19T18:08:27.626Z,94846.97
2023-05-19T18:10:57.120Z,94849.31
2023-05-19T18:13:24.040Z,94854.13
2023-05-19T18:15:52.952Z,94853.09
2023-05-19T18:18:19.987Z,94860.22
2023-05-19T18:20:49.897Z,94858.50
2023-05-19T18:23:16.719Z,94854.25
2023-05-19T18:25:50.844Z,94857.66
2023-05-19T18:28:17.707Z,94854.88
2023-05-19T18:30:45.007Z,94855.78
2023-05-19T18:33:12.063Z,94855.88
2023-05-19T18:35:39.094Z,94854.88
2023-05-19T18:38:06.456Z,94854.84
2023-05-19T18:40:33.562Z,94857.56
2023-05-19T18:43:00.796Z,94861.25
2023-05-19T18:45:27.607Z,94855.84
2023-05-19T18:47:54.393Z,94861.34
2023-05-19T18:50:21.707Z,94862.66
2023-05-19T18:52:48.453Z,94860.38
2023-05-19T18:55:15.407Z,94848.25
2023-05-19T18:57:42.125Z,94848.41
2023-05-19T19:00:09.461Z,94851.88
2023-05-19T19:02:36.596Z,94850.13
2023-05-19T19:05:04.273Z,94852.97
2023-05-19T19:07:31.710Z,94859.09
2023-05-19T19:09:58.571Z,94854.59
2023-05-19T19:12:25.553Z,94862.22
2023-05-19T19:14:52.288Z,94865.59
2023-05-19T19:17:19.430Z,94863.66
2023-05-19T19:19:47.385Z,94867.06
2023-05-19T19:22:14.412Z,94864.72
2023-05-19T19:24:43.098Z,94863.94
2023-05-19T19:27:10.364Z,94866.69
2023-05-19T19:29:37.315Z,94865.91
2023-05-19T19:32:04.468Z,94870.91
2023-05-19T19:34:31.529Z,94867.56
2023-05-19T19:36:58.343Z,94867.81
2023-05-19T19:39:25.167Z,94871.72
2023-05-19T19:41:52.573Z,94871.28
2023-05-19T19:44:19.436Z,94863.16
2023-05-19T19:46:46.276Z,94868.81
2023-05-19T19:49:13.159Z,94873.31
2023-05-19T19:51:40.050Z,94870.00
2023-05-19T19:54:07.454Z,94873.94
2023-05-19T19:56:36.480Z,94870.25
2023-05-19T19:59:03.797Z,94873.34
2023-05-19T20:01:31.254Z,94870.75
2023-05-19T20:03:58.387Z,94878.13
2023-05-19T20:06:25.373Z,94874.59
2023-05-19T20:08:53.181Z,94864.56
2023-05-19T20:11:23.162Z,94866.31
2023-05-19T20:13:51.441Z,94869.84
2023-05-19T20:16:19.110Z,94873.16
2023-05-19T20:18:46.439Z,94869.84
2023-05-19T20:21:13.397Z,94859.59
2023-05-19T20:23:40.868Z,94862.91
2023-05-19T20:26:11.709Z,94852.50
2023-05-19T20:28:40.139Z,94856.38
2023-05-19T20:31:08.788Z,94864.25
2023-05-19T20:33:37.638Z,94853.00
2023-05-19T20:36:07.152Z,94848.75
2023-05-19T20:38:34.038Z,94848.38
2023-05-19T20:41:02.146Z,94845.63
2023-05-19T20:43:29.293Z,94841.16
2023-05-19T20:45:56.212Z,94842.56
2023-05-19T20:48:23.146Z,94841.91
2023-05-19T20:50:51.797Z,94831.59
2023-05-19T20:53:19.581Z,94836.22
2023-05-19T20:55:47.729Z,94843.66
2023-05-19T20:58:14.553Z,94843.22
2023-05-19T21:00:41.766Z,94839.44
2023-05-19T21:03:08.971Z,94834.00
2023-05-19T21:05:37.099Z,94844.75
2023-05-19T21:08:04.136Z,94845.94
2023-05-19T21:10:32.099Z,94848.06
2023-05-19T21:12:59.640Z,94846.81
2023-05-19T21:15:27.245Z,94846.53
2023-05-19T21:17:54.097Z,94848.09
2023-05-19T21:20:21.983Z,94843.97
2023-05-19T21:22:48.874Z,94840.50
2023-05-19T21:25:17.118Z,94844.78
2023-05-19T21:27:46.236Z,94838.63
2023-05-19T21:30:14.183Z,94836.56
2023-05-19T21:32:41.333Z,94839.84
2023-05-19T21:35:09.225Z,94836.41
2023-05-19T21:37:37.148Z,94838.28
2023-05-19T21:40:04.076Z,94836.56
2023-05-19T21:42:31.024Z,94833.88
2023-05-19T21:44:58.051Z,94825.34
2023-05-19T21:47:24.897Z,94830.97
2023-05-19T21:49:52.031Z,94835.28
2023-05-19T21:52:22.153Z,94821.69
2023-05-19T21:54:52.138Z,94825.97
2023-05-19T21:57:18.856Z,94826.13
2023-05-19T21:59:45.811Z,94822.69
2023-05-19T22:02:12.741Z,94826.94
2023-05-19T22:04:41.153Z,94822.69
2023-05-19T22:07:08.340Z,94812.69
2023-05-19T22:09:35.156Z,94810.53
2023-05-19T22:12:02.141Z,94804.38
2023-05-19T22:14:29.021Z,94812.88
2023-05-19T22:16:55.813Z,94807.94
2023-05-19T22:19:22.731Z,94811.22
2023-05-19T22:21:53.639Z,94819.03
2023-05-19T22:24:25.536Z,94827.19
2023-05-19T22:26:52.564Z,94827.88
2023-05-19T22:29:20.295Z,94821.31
2023-05-19T22:31:47.444Z,94813.84
2023-05-19T22:34:15.385Z,94815.41
2023-05-19T22:36:44.166Z,94814.72
2023-05-19T22:39:12.501Z,94803.91
2023-05-19T22:41:39.751Z,94806.47
2023-05-19T22:44:07.016Z,94804.38
2023-05-19T22:46:35.350Z,94799.06
2023-05-19T22:49:02.556Z,94797.56
2023-05-19T22:51:29.351Z,94787.56
2023-05-19T22:53:56.140Z,94796.88
2023-05-19T22:56:23.221Z,94799.84
2023-05-19T22:58:50.078Z,94795.06
2023-05-19T23:01:17.285Z,94792.34
2023-05-19T23:03:44.441Z,94779.13
2023-05-19T23:06:11.321Z,94788.28
2023-05-19T23:08:38.108Z,94779.34
2023-05-19T23:11:04.931Z,94787.97
2023-05-19T23:13:31.835Z,94790.00
2023-05-19T23:15:58.599Z,94787.00
2023-05-19T23:18:25.412Z,94780.66
2023-05-19T23:20:52.365Z,94784.50
2023-05-19T23:23:19.578Z,94781.75
2023-05-19T23:25:46.485Z,94780.53
2023-05-19T23:28:13.401Z,94775.31
2023-05-19T23:30:40.345Z,94772.44
2023-05-19T23:33:07.223Z,94771.22
2023-05-19T23:35:35.011Z,94770.63
2023-05-19T23:38:02.102Z,94765.66
2023-05-19T23:40:29.069Z,94761.81
2023-05-19T23:42:55.893Z,94758.91
2023-05-19T23:45:22.674Z,94753.28
2023-05-19T23:47:49.815Z,94762.97
2023-05-19T23:50:16.964Z,94754.03
2023-05-19T23:52:43.951Z,94759.41
2023-05-19T23:55:13.083Z,94758.91
2023-05-19T23:57:39.812Z,94753.69
